sensor_id;sensor_type;location;lat;lon;timestamp;pressure;altitude;pressure_sealevel;temperature;humidity
64340;BME280;63709;53.258;-8.814;2023-01-15T00:03:46;99704.97;;;8.04;100.00
64340;BME280;63709;53.258;-8.814;2023-01-15T00:06:15;99693.94;;;7.87;100.00
64340;BME280;63709;53.258;-8.814;2023-01-15T00:08:48;99696.38;;;7.79;100.00
64340;BME280;63709;53.258;-8.814;2023-01-15T00:11:14;99682.81;;;7.82;100.00
64340;BME280;63709;53.258;-8.814;2023-01-15T00:13:40;99689.38;;;7.78;100.00
64340;BME280;63709;53.258;-8.814;2023-01-15T00:16:11;99691.53;;;7.84;100.00
64340;BME280;63709;53.258;-8.814;2023-01-15T00:18:37;99700.94;;;7.88;100.00
64340;BME280;63709;53.258;-8.814;2023-01-15T00:21:07;99672.00;;;7.74;100.00
64340;BME280;63709;53.258;-8.814;2023-01-15T00:23:34;99674.25;;;7.79;100.00
64340;BME280;63709;53.258;-8.814;2023-01-15T00:26:28;99664.63;;;7.78;100.00
64340;BME280;63709;53.258;-8.814;2023-01-15T00:29:19;99665.47;;;7.78;100.00
64340;BME280;63709;53.258;-8.814;2023-01-15T00:32:06;99674.72;;;7.95;100.00
64340;BME280;63709;53.258;-8.814;2023-01-15T00:34:32;99657.28;;;8.02;100.00
64340;BME280;63709;53.258;-8.814;2023-01-15T00:36:59;99643.22;;;7.90;100.00
64340;BME280;63709;53.258;-8.814;2023-01-15T00:39:31;99642.44;;;7.99;100.00
64340;BME280;63709;53.258;-8.814;2023-01-15T00:42:01;99645.56;;;8.05;100.00
64340;BME280;63709;53.258;-8.814;2023-01-15T00:44:27;99643.28;;;8.00;100.00
64340;BME280;63709;53.258;-8.814;2023-01-15T00:47:09;99647.13;;;8.28;100.00
64340;BME280;63709;53.258;-8.814;2023-01-15T00:49:41;99643.00;;;8.35;100.00
64340;BME280;63709;53.258;-8.814;2023-01-15T00:52:10;99641.09;;;8.26;100.00
64340;BME280;63709;53.258;-8.814;2023-01-15T00:54:37;99651.19;;;8.43;100.00
64340;BME280;63709;53.258;-8.814;2023-01-15T00:57:09;99629.50;;;8.48;100.00
64340;BME280;63709;53.258;-8.814;2023-01-15T00:59:43;99634.16;;;8.56;100.00
64340;BME280;63709;53.258;-8.814;2023-01-15T01:02:18;99627.75;;;8.37;100.00
64340;BME280;63709;53.258;-8.814;2023-01-15T01:04:43;99641.47;;;8.54;100.00
64340;BME280;63709;53.258;-8.814;2023-01-15T01:07:10;99632.13;;;8.38;100.00
64340;BME280;63709;53.258;-8.814;2023-01-15T01:09:38;99639.00;;;8.30;100.00
64340;BME280;63709;53.258;-8.814;2023-01-15T01:12:11;99627.50;;;8.19;100.00
64340;BME280;63709;53.258;-8.814;2023-01-15T01:14:40;99646.88;;;8.31;100.00
64340;BME280;63709;53.258;-8.814;2023-01-15T01:17:09;99659.00;;;8.24;100.00
64340;BME280;63709;53.258;-8.814;2023-01-15T01:19:38;99667.16;;;8.32;100.00
64340;BME280;63709;53.258;-8.814;2023-01-15T01:22:05;99671.75;;;8.30;100.00
64340;BME280;63709;53.258;-8.814;2023-01-15T01:24:39;99629.09;;;8.11;100.00
64340;BME280;63709;53.258;-8.814;2023-01-15T01:27:10;99654.56;;;8.34;100.00
64340;BME280;63709;53.258;-8.814;2023-01-15T01:29:36;99652.28;;;8.41;100.00
64340;BME280;63709;53.258;-8.814;2023-01-15T01:32:14;99663.06;;;8.39;100.00
64340;BME280;63709;53.258;-8.814;2023-01-15T01:34:41;99643.25;;;8.32;100.00
64340;BME280;63709;53.258;-8.814;2023-01-15T01:37:09;99667.56;;;8.48;100.00
64340;BME280;63709;53.258;-8.814;2023-01-15T01:39:45;99660.72;;;8.46;100.00
64340;BME280;63709;53.258;-8.814;2023-01-15T01:42:41;99658.69;;;8.59;100.00
64340;BME280;63709;53.258;-8.814;2023-01-15T01:45:17;99663.97;;;8.50;100.00
64340;BME280;63709;53.258;-8.814;2023-01-15T01:47:45;99668.50;;;8.59;100.00
64340;BME280;63709;53.258;-8.814;2023-01-15T01:50:24;99674.78;;;8.58;100.00
64340;BME280;63709;53.258;-8.814;2023-01-15T01:53:03;99653.91;;;8.53;100.00
64340;BME280;63709;53.258;-8.814;2023-01-15T01:55:43;99658.19;;;8.44;100.00
64340;BME280;63709;53.258;-8.814;2023-01-15T01:58:39;99657.41;;;8.54;100.00
64340;BME280;63709;53.258;-8.814;2023-01-15T02:01:10;99649.50;;;8.42;100.00
64340;BME280;63709;53.258;-8.814;2023-01-15T02:03:42;99651.53;;;8.60;100.00
64340;BME280;63709;53.258;-8.814;2023-01-15T02:06:15;99617.13;;;8.37;100.00
64340;BME280;63709;53.258;-8.814;2023-01-15T02:09:04;99645.13;;;8.62;100.00
64340;BME280;63709;53.258;-8.814;2023-01-15T02:11:31;99618.28;;;8.44;100.00
64340;BME280;63709;53.258;-8.814;2023-01-15T02:30:10;99647.94;;;8.61;100.00
64340;BME280;63709;53.258;-8.814;2023-01-15T02:32:38;99647.66;;;8.64;100.00
64340;BME280;63709;53.258;-8.814;2023-01-15T02:38:42;99645.06;;;8.53;100.00
64340;BME280;63709;53.258;-8.814;2023-01-15T02:41:35;99648.88;;;8.60;100.00
64340;BME280;63709;53.258;-8.814;2023-01-15T02:44:17;99649.88;;;8.59;100.00
64340;BME280;63709;53.258;-8.814;2023-01-15T02:46:44;99659.16;;;8.64;100.00
64340;BME280;63709;53.258;-8.814;2023-01-15T02:49:30;99661.81;;;8.64;100.00
64340;BME280;63709;53.258;-8.814;2023-01-15T02:52:05;99660.94;;;8.64;100.00
64340;BME280;63709;53.258;-8.814;2023-01-15T02:54:45;99668.56;;;8.68;100.00
64340;BME280;63709;53.258;-8.814;2023-01-15T02:57:14;99653.09;;;8.62;100.00
64340;BME280;63709;53.258;-8.814;2023-01-15T02:59:49;99660.00;;;8.65;100.00
64340;BME280;63709;53.258;-8.814;2023-01-15T03:05:53;99670.63;;;8.65;100.00
64340;BME280;63709;53.258;-8.814;2023-01-15T03:08:50;99669.13;;;8.72;100.00
64340;BME280;63709;53.258;-8.814;2023-01-15T03:11:18;99652.97;;;8.64;100.00
64340;BME280;63709;53.258;-8.814;2023-01-15T03:13:59;99665.91;;;8.68;100.00
64340;BME280;63709;53.258;-8.814;2023-01-15T03:16:46;99678.38;;;8.78;100.00
64340;BME280;63709;53.258;-8.814;2023-01-15T03:22:39;99670.66;;;8.75;100.00
64340;BME280;63709;53.258;-8.814;2023-01-15T03:28:37;99675.88;;;8.76;100.00
64340;BME280;63709;53.258;-8.814;2023-01-15T03:31:04;99666.84;;;8.67;100.00
64340;BME280;63709;53.258;-8.814;2023-01-15T03:33:36;99647.72;;;8.53;100.00
64340;BME280;63709;53.258;-8.814;2023-01-15T03:36:15;99662.84;;;8.52;100.00
64340;BME280;63709;53.258;-8.814;2023-01-15T03:38:52;99668.03;;;8.54;100.00
64340;BME280;63709;53.258;-8.814;2023-01-15T04:03:27;99690.41;;;8.51;100.00
64340;BME280;63709;53.258;-8.814;2023-01-15T04:09:22;99694.75;;;8.52;100.00
64340;BME280;63709;53.258;-8.814;2023-01-15T04:15:21;99697.41;;;8.52;100.00
64340;BME280;63709;53.258;-8.814;2023-01-15T04:20:50;99715.13;;;8.63;100.00
64340;BME280;63709;53.258;-8.814;2023-01-15T04:35:49;99684.78;;;8.33;100.00
64340;BME280;63709;53.258;-8.814;2023-01-15T04:38:14;99693.13;;;8.40;100.00
64340;BME280;63709;53.258;-8.814;2023-01-15T04:41:09;99695.88;;;8.50;100.00
64340;BME280;63709;53.258;-8.814;2023-01-15T04:43:56;99684.44;;;8.38;100.00
64340;BME280;63709;53.258;-8.814;2023-01-15T04:46:41;99686.59;;;8.44;100.00
64340;BME280;63709;53.258;-8.814;2023-01-15T04:52:31;99680.22;;;8.35;100.00
64340;BME280;63709;53.258;-8.814;2023-01-15T04:55:06;99671.75;;;8.30;100.00
64340;BME280;63709;53.258;-8.814;2023-01-15T04:57:39;99673.97;;;8.25;100.00
64340;BME280;63709;53.258;-8.814;2023-01-15T05:00:14;99672.53;;;8.21;100.00
64340;BME280;63709;53.258;-8.814;2023-01-15T05:03:03;99689.78;;;8.27;100.00
64340;BME280;63709;53.258;-8.814;2023-01-15T05:05:50;99691.28;;;8.19;100.00
64340;BME280;63709;53.258;-8.814;2023-01-15T05:08:20;99687.44;;;8.12;100.00
64340;BME280;63709;53.258;-8.814;2023-01-15T05:14:10;99689.25;;;8.12;100.00
64340;BME280;63709;53.258;-8.814;2023-01-15T05:19:52;99692.19;;;8.09;100.00
64340;BME280;63709;53.258;-8.814;2023-01-15T05:22:23;99706.75;;;8.14;100.00
64340;BME280;63709;53.258;-8.814;2023-01-15T05:25:08;99705.47;;;8.09;100.00
64340;BME280;63709;53.258;-8.814;2023-01-15T05:27:48;99707.00;;;8.11;100.00
64340;BME280;63709;53.258;-8.814;2023-01-15T05:30:27;99703.25;;;8.14;100.00
64340;BME280;63709;53.258;-8.814;2023-01-15T05:32:59;99712.91;;;8.15;100.00
64340;BME280;63709;53.258;-8.814;2023-01-15T05:35:24;99705.13;;;8.02;100.00
64340;BME280;63709;53.258;-8.814;2023-01-15T05:38:17;99717.38;;;8.14;100.00
64340;BME280;63709;53.258;-8.814;2023-01-15T05:40:48;99696.16;;;8.03;100.00
64340;BME280;63709;53.258;-8.814;2023-01-15T05:46:45;99716.16;;;8.18;100.00
64340;BME280;63709;53.258;-8.814;2023-01-15T05:49:15;99717.00;;;8.19;100.00
64340;BME280;63709;53.258;-8.814;2023-01-15T05:54:53;99711.38;;;8.12;100.00
64340;BME280;63709;53.258;-8.814;2023-01-15T05:57:32;99711.63;;;8.09;100.00
64340;BME280;63709;53.258;-8.814;2023-01-15T06:00:13;99712.44;;;8.10;100.00
64340;BME280;63709;53.258;-8.814;2023-01-15T06:02:52;99707.28;;;7.97;100.00
64340;BME280;63709;53.258;-8.814;2023-01-15T06:05:51;99727.03;;;8.15;100.00
64340;BME280;63709;53.258;-8.814;2023-01-15T06:08:16;99729.03;;;8.02;100.00
64340;BME280;63709;53.258;-8.814;2023-01-15T06:10:46;99748.19;;;8.17;100.00
64340;BME280;63709;53.258;-8.814;2023-01-15T06:13:25;99743.38;;;8.11;100.00
64340;BME280;63709;53.258;-8.814;2023-01-15T06:19:15;99756.84;;;8.19;100.00
64340;BME280;63709;53.258;-8.814;2023-01-15T06:21:48;99750.59;;;8.20;100.00
64340;BME280;63709;53.258;-8.814;2023-01-15T06:24:29;99744.16;;;8.22;100.00
64340;BME280;63709;53.258;-8.814;2023-01-15T06:27:02;99759.38;;;8.32;100.00
64340;BME280;63709;53.258;-8.814;2023-01-15T06:29:36;99738.41;;;8.17;100.00
64340;BME280;63709;53.258;-8.814;2023-01-15T06:35:23;99749.56;;;8.32;100.00
64340;BME280;63709;53.258;-8.814;2023-01-15T06:41:12;99753.19;;;8.42;100.00
64340;BME280;63709;53.258;-8.814;2023-01-15T06:44:14;99753.06;;;8.44;100.00
64340;BME280;63709;53.258;-8.814;2023-01-15T06:47:07;99723.75;;;8.23;100.00
64340;BME280;63709;53.258;-8.814;2023-01-15T06:49:53;99765.00;;;8.50;100.00
64340;BME280;63709;53.258;-8.814;2023-01-15T06:52:24;99760.19;;;8.43;100.00
64340;BME280;63709;53.258;-8.814;2023-01-15T07:00:47;99765.78;;;8.29;100.00
64340;BME280;63709;53.258;-8.814;2023-01-15T07:03:48;99776.75;;;8.36;100.00
64340;BME280;63709;53.258;-8.814;2023-01-15T07:06:18;99771.72;;;8.21;100.00
64340;BME280;63709;53.258;-8.814;2023-01-15T07:09:20;99784.75;;;8.24;100.00
64340;BME280;63709;53.258;-8.814;2023-01-15T07:12:13;99784.75;;;8.24;100.00
64340;BME280;63709;53.258;-8.814;2023-01-15T07:14:45;99774.56;;;8.09;100.00
64340;BME280;63709;53.258;-8.814;2023-01-15T07:27:22;99800.56;;;8.37;100.00
64340;BME280;63709;53.258;-8.814;2023-01-15T07:33:00;99796.34;;;8.35;100.00
64340;BME280;63709;53.258;-8.814;2023-01-15T07:38:47;99799.59;;;8.50;100.00
64340;BME280;63709;53.258;-8.814;2023-01-15T07:41:12;99779.66;;;8.44;100.00
64340;BME280;63709;53.258;-8.814;2023-01-15T07:44:10;99813.41;;;8.64;100.00
64340;BME280;63709;53.258;-8.814;2023-01-15T07:46:58;99803.28;;;8.58;100.00
64340;BME280;63709;53.258;-8.814;2023-01-15T07:50:08;99819.78;;;8.73;100.00
64340;BME280;63709;53.258;-8.814;2023-01-15T07:52:46;99825.44;;;8.80;100.00
64340;BME280;63709;53.258;-8.814;2023-01-15T07:58:33;99846.91;;;8.88;100.00
64340;BME280;63709;53.258;-8.814;2023-01-15T08:07:37;99860.56;;;8.94;100.00
64340;BME280;63709;53.258;-8.814;2023-01-15T08:10:12;99865.84;;;9.06;100.00
64340;BME280;63709;53.258;-8.814;2023-01-15T08:16:00;99868.25;;;9.09;100.00
64340;BME280;63709;53.258;-8.814;2023-01-15T08:18:31;99870.16;;;9.07;100.00
64340;BME280;63709;53.258;-8.814;2023-01-15T08:21:18;99886.34;;;9.15;100.00
64340;BME280;63709;53.258;-8.814;2023-01-15T08:24:06;99892.25;;;9.18;100.00
64340;BME280;63709;53.258;-8.814;2023-01-15T08:29:55;99894.81;;;9.20;100.00
64340;BME280;63709;53.258;-8.814;2023-01-15T08:32:23;99903.72;;;9.19;100.00
64340;BME280;63709;53.258;-8.814;2023-01-15T08:35:06;99880.69;;;9.08;100.00
64340;BME280;63709;53.258;-8.814;2023-01-15T08:37:39;99906.88;;;9.24;100.00
64340;BME280;63709;53.258;-8.814;2023-01-15T08:40:14;99907.38;;;9.18;100.00
64340;BME280;63709;53.258;-8.814;2023-01-15T08:46:03;99902.31;;;9.15;100.00
64340;BME280;63709;53.258;-8.814;2023-01-15T08:55:29;99925.75;;;9.21;100.00
64340;BME280;63709;53.258;-8.814;2023-01-15T08:57:58;99882.84;;;8.82;100.00
64340;BME280;63709;53.258;-8.814;2023-01-15T09:00:23;99920.88;;;9.05;100.00
64340;BME280;63709;53.258;-8.814;2023-01-15T09:02:56;99907.47;;;8.95;100.00
64340;BME280;63709;53.258;-8.814;2023-01-15T09:05:38;99940.16;;;9.18;100.00
64340;BME280;63709;53.258;-8.814;2023-01-15T09:08:06;99954.59;;;9.16;100.00
64340;BME280;63709;53.258;-8.814;2023-01-15T09:10:49;99951.78;;;9.17;100.00
64340;BME280;63709;53.258;-8.814;2023-01-15T09:13:15;99946.88;;;9.13;100.00
64340;BME280;63709;53.258;-8.814;2023-01-15T09:15:43;99950.22;;;9.15;100.00
64340;BME280;63709;53.258;-8.814;2023-01-15T09:21:34;99952.44;;;9.10;100.00
64340;BME280;63709;53.258;-8.814;2023-01-15T09:27:21;99950.38;;;9.13;100.00
64340;BME280;63709;53.258;-8.814;2023-01-15T09:30:21;99967.88;;;9.27;100.00
64340;BME280;63709;53.258;-8.814;2023-01-15T09:36:23;99955.31;;;9.18;100.00
64340;BME280;63709;53.258;-8.814;2023-01-15T09:38:49;99954.47;;;9.17;100.00
64340;BME280;63709;53.258;-8.814;2023-01-15T09:44:45;99977.78;;;9.25;100.00
64340;BME280;63709;53.258;-8.814;2023-01-15T09:47:26;99977.81;;;9.14;100.00
64340;BME280;63709;53.258;-8.814;2023-01-15T09:53:13;99990.25;;;9.25;100.00
64340;BME280;63709;53.258;-8.814;2023-01-15T09:55:48;99988.63;;;9.12;100.00
64340;BME280;63709;53.258;-8.814;2023-01-15T09:58:37;99991.97;;;9.14;100.00
64340;BME280;63709;53.258;-8.814;2023-01-15T10:04:53;100008.13;;;9.02;100.00
64340;BME280;63709;53.258;-8.814;2023-01-15T10:10:46;100027.97;;;8.98;100.00
64340;BME280;63709;53.258;-8.814;2023-01-15T10:16:32;100020.59;;;8.79;100.00
64340;BME280;63709;53.258;-8.814;2023-01-15T10:25:29;100035.03;;;8.76;100.00
64340;BME280;63709;53.258;-8.814;2023-01-15T10:31:53;100051.59;;;8.68;100.00
64340;BME280;63709;53.258;-8.814;2023-01-15T10:46:26;100061.13;;;8.60;100.00
64340;BME280;63709;53.258;-8.814;2023-01-15T10:49:13;100052.81;;;8.64;100.00
64340;BME280;63709;53.258;-8.814;2023-01-15T10:58:12;100039.75;;;8.72;100.00
64340;BME280;63709;53.258;-8.814;2023-01-15T11:01:31;100042.25;;;8.74;100.00
64340;BME280;63709;53.258;-8.814;2023-01-15T11:07:47;100042.38;;;8.84;100.00
64340;BME280;63709;53.258;-8.814;2023-01-15T11:10:36;100037.66;;;8.87;100.00
64340;BME280;63709;53.258;-8.814;2023-01-15T11:13:24;100037.28;;;8.92;100.00
64340;BME280;63709;53.258;-8.814;2023-01-15T11:16:26;100022.91;;;8.94;100.00
64340;BME280;63709;53.258;-8.814;2023-01-15T11:22:37;99992.16;;;9.02;100.00
64340;BME280;63709;53.258;-8.814;2023-01-15T11:28:38;100009.94;;;9.33;100.00
64340;BME280;63709;53.258;-8.814;2023-01-15T11:31:06;100001.06;;;9.44;100.00
64340;BME280;63709;53.258;-8.814;2023-01-15T11:36:42;99990.84;;;9.49;100.00
64340;BME280;63709;53.258;-8.814;2023-01-15T11:39:25;100003.75;;;9.65;100.00
64340;BME280;63709;53.258;-8.814;2023-01-15T11:42:14;99986.06;;;9.64;100.00
64340;BME280;63709;53.258;-8.814;2023-01-15T11:44:59;99985.72;;;9.78;100.00
64340;BME280;63709;53.258;-8.814;2023-01-15T11:47:58;99979.81;;;9.96;100.00
64340;BME280;63709;53.258;-8.814;2023-01-15T11:53:32;99949.56;;;10.27;100.00
64340;BME280;63709;53.258;-8.814;2023-01-15T11:56:00;99942.59;;;10.55;100.00
64340;BME280;63709;53.258;-8.814;2023-01-15T11:58:55;99952.75;;;10.61;100.00
64340;BME280;63709;53.258;-8.814;2023-01-15T12:01:33;99949.13;;;10.72;100.00
64340;BME280;63709;53.258;-8.814;2023-01-15T12:04:04;99917.78;;;10.64;100.00
64340;BME280;63709;53.258;-8.814;2023-01-15T12:06:31;99933.41;;;10.88;100.00
64340;BME280;63709;53.258;-8.814;2023-01-15T12:14:53;99909.22;;;11.00;100.00
64340;BME280;63709;53.258;-8.814;2023-01-15T12:26:12;99870.31;;;11.07;100.00
64340;BME280;63709;53.258;-8.814;2023-01-15T12:31:52;99863.81;;;11.29;100.00
64340;BME280;63709;53.258;-8.814;2023-01-15T12:34:26;99873.38;;;11.31;100.00
64340;BME280;63709;53.258;-8.814;2023-01-15T12:37:16;99879.69;;;11.40;100.00
64340;BME280;63709;53.258;-8.814;2023-01-15T12:40:04;99875.19;;;11.41;100.00
64340;BME280;63709;53.258;-8.814;2023-01-15T12:42:34;99869.28;;;11.37;100.00
64340;BME280;63709;53.258;-8.814;2023-01-15T12:45:21;99852.44;;;11.17;100.00
64340;BME280;63709;53.258;-8.814;2023-01-15T12:50:51;99836.00;;;11.12;100.00
64340;BME280;63709;53.258;-8.814;2023-01-15T12:53:24;99846.28;;;11.17;100.00
64340;BME280;63709;53.258;-8.814;2023-01-15T12:56:06;99838.81;;;11.10;100.00
64340;BME280;63709;53.258;-8.814;2023-01-15T12:58:41;99808.06;;;11.06;100.00
64340;BME280;63709;53.258;-8.814;2023-01-15T13:01:36;99822.34;;;11.15;100.00
64340;BME280;63709;53.258;-8.814;2023-01-15T13:04:17;99823.19;;;11.15;100.00
64340;BME280;63709;53.258;-8.814;2023-01-15T13:06:51;99818.13;;;11.22;100.00
64340;BME280;63709;53.258;-8.814;2023-01-15T13:11:46;99808.16;;;11.14;100.00
64340;BME280;63709;53.258;-8.814;2023-01-15T13:14:15;99807.50;;;11.12;100.00
64340;BME280;63709;53.258;-8.814;2023-01-15T13:16:51;99806.44;;;11.23;100.00
64340;BME280;63709;53.258;-8.814;2023-01-15T13:19:25;99799.44;;;11.22;100.00
64340;BME280;63709;53.258;-8.814;2023-01-15T13:21:59;99787.78;;;11.13;100.00
64340;BME280;63709;53.258;-8.814;2023-01-15T13:32:44;99772.28;;;11.27;100.00
64340;BME280;63709;53.258;-8.814;2023-01-15T13:35:34;99773.81;;;11.39;100.00
64340;BME280;63709;53.258;-8.814;2023-01-15T13:38:05;99770.59;;;11.35;100.00
64340;BME280;63709;53.258;-8.814;2023-01-15T13:40:38;99773.06;;;11.47;100.00
64340;BME280;63709;53.258;-8.814;2023-01-15T13:43:06;99745.94;;;11.42;100.00
64340;BME280;63709;53.258;-8.814;2023-01-15T13:45:47;99739.19;;;11.47;100.00
64340;BME280;63709;53.258;-8.814;2023-01-15T13:48:18;99752.72;;;11.63;100.00
64340;BME280;63709;53.258;-8.814;2023-01-15T13:50:55;99749.22;;;11.63;100.00
64340;BME280;63709;53.258;-8.814;2023-01-15T13:53:33;99739.25;;;11.65;100.00
64340;BME280;63709;53.258;-8.814;2023-01-15T13:56:27;99733.34;;;11.61;100.00
64340;BME280;63709;53.258;-8.814;2023-01-15T13:58:58;99731.63;;;11.60;100.00
64340;BME280;63709;53.258;-8.814;2023-01-15T14:06:48;99709.50;;;11.50;100.00
64340;BME280;63709;53.258;-8.814;2023-01-15T14:11:47;99698.66;;;11.52;100.00
64340;BME280;63709;53.258;-8.814;2023-01-15T14:23:16;99678.19;;;11.43;100.00
64340;BME280;63709;53.258;-8.814;2023-01-15T14:36:40;99653.03;;;11.35;100.00
64340;BME280;63709;53.258;-8.814;2023-01-15T14:39:34;99644.78;;;11.29;100.00
64340;BME280;63709;53.258;-8.814;2023-01-15T14:45:06;99616.88;;;11.13;100.00
64340;BME280;63709;53.258;-8.814;2023-01-15T14:47:35;99634.13;;;11.19;100.00
64340;BME280;63709;53.258;-8.814;2023-01-15T14:52:45;99610.09;;;11.19;100.00
64340;BME280;63709;53.258;-8.814;2023-01-15T14:55:12;99609.59;;;11.33;100.00
64340;BME280;63709;53.258;-8.814;2023-01-15T14:57:41;99602.66;;;11.41;100.00
64340;BME280;63709;53.258;-8.814;2023-01-15T15:00:16;99604.44;;;11.50;100.00
64340;BME280;63709;53.258;-8.814;2023-01-15T15:02:43;99610.53;;;11.60;100.00
64340;BME280;63709;53.258;-8.814;2023-01-15T15:05:17;99598.34;;;11.57;100.00
64340;BME280;63709;53.258;-8.814;2023-01-15T15:07:45;99598.88;;;11.61;100.00
64340;BME280;63709;53.258;-8.814;2023-01-15T15:15:54;99592.91;;;11.49;100.00
64340;BME280;63709;53.258;-8.814;2023-01-15T15:18:30;99586.50;;;11.42;100.00
64340;BME280;63709;53.258;-8.814;2023-01-15T15:21:11;99588.00;;;11.45;100.00
64340;BME280;63709;53.258;-8.814;2023-01-15T15:24:03;99588.31;;;11.42;100.00
64340;BME280;63709;53.258;-8.814;2023-01-15T15:26:33;99564.19;;;11.33;100.00
64340;BME280;63709;53.258;-8.814;2023-01-15T15:31:26;99562.88;;;11.37;100.00
64340;BME280;63709;53.258;-8.814;2023-01-15T15:33:54;99554.88;;;11.37;100.00
64340;BME280;63709;53.258;-8.814;2023-01-15T15:36:21;99533.25;;;11.31;100.00
64340;BME280;63709;53.258;-8.814;2023-01-15T15:38:55;99549.75;;;11.26;100.00
64340;BME280;63709;53.258;-8.814;2023-01-15T15:41:26;99548.38;;;11.22;100.00
64340;BME280;63709;53.258;-8.814;2023-01-15T15:44:39;99532.28;;;11.14;100.00
64340;BME280;63709;53.258;-8.814;2023-01-15T15:47:26;99528.78;;;11.13;100.00
64340;BME280;63709;53.258;-8.814;2023-01-15T15:52:53;99523.09;;;10.99;100.00
64340;BME280;63709;53.258;-8.814;2023-01-15T15:55:21;99530.69;;;10.94;100.00
64340;BME280;63709;53.258;-8.814;2023-01-15T15:57:59;99526.81;;;10.88;100.00
64340;BME280;63709;53.258;-8.814;2023-01-15T16:00:39;99520.97;;;10.75;100.00
64340;BME280;63709;53.258;-8.814;2023-01-15T16:03:20;99518.50;;;10.63;100.00
64340;BME280;63709;53.258;-8.814;2023-01-15T16:06:06;99524.00;;;10.62;100.00
64340;BME280;63709;53.258;-8.814;2023-01-15T16:08:33;99515.44;;;10.58;100.00
64340;BME280;63709;53.258;-8.814;2023-01-15T16:11:09;99503.41;;;10.45;100.00
64340;BME280;63709;53.258;-8.814;2023-01-15T16:13:40;99505.53;;;10.41;100.00
64340;BME280;63709;53.258;-8.814;2023-01-15T16:16:07;99498.72;;;10.29;100.00
64340;BME280;63709;53.258;-8.814;2023-01-15T16:18:43;99502.38;;;10.28;100.00
64340;BME280;63709;53.258;-8.814;2023-01-15T16:21:15;99504.34;;;10.16;100.00
64340;BME280;63709;53.258;-8.814;2023-01-15T16:23:41;99487.09;;;10.10;100.00
64340;BME280;63709;53.258;-8.814;2023-01-15T16:26:16;99478.44;;;9.99;100.00
64340;BME280;63709;53.258;-8.814;2023-01-15T16:28:53;99478.72;;;9.86;100.00
64340;BME280;63709;53.258;-8.814;2023-01-15T16:31:20;99479.72;;;9.75;100.00
64340;BME280;63709;53.258;-8.814;2023-01-15T16:33:55;99470.22;;;9.63;100.00
64340;BME280;63709;53.258;-8.814;2023-01-15T16:36:21;99444.34;;;9.45;100.00
64340;BME280;63709;53.258;-8.814;2023-01-15T16:38:48;99471.50;;;9.59;100.00
64340;BME280;63709;53.258;-8.814;2023-01-15T16:41:20;99466.59;;;9.44;100.00
64340;BME280;63709;53.258;-8.814;2023-01-15T16:43:55;99467.56;;;9.34;100.00
64340;BME280;63709;53.258;-8.814;2023-01-15T16:46:23;99459.19;;;9.29;100.00
64340;BME280;63709;53.258;-8.814;2023-01-15T16:51:48;99445.84;;;9.19;100.00
64340;BME280;63709;53.258;-8.814;2023-01-15T16:54:40;99452.03;;;9.19;100.00
64340;BME280;63709;53.258;-8.814;2023-01-15T16:57:27;99443.78;;;9.13;100.00
64340;BME280;63709;53.258;-8.814;2023-01-15T17:02:20;99446.56;;;9.02;100.00
64340;BME280;63709;53.258;-8.814;2023-01-15T17:04:46;99450.91;;;9.03;100.00
64340;BME280;63709;53.258;-8.814;2023-01-15T17:07:21;99455.94;;;8.96;100.00
64340;BME280;63709;53.258;-8.814;2023-01-15T17:09:53;99443.88;;;8.82;100.00
64340;BME280;63709;53.258;-8.814;2023-01-15T17:12:45;99456.22;;;8.83;100.00
64340;BME280;63709;53.258;-8.814;2023-01-15T17:17:50;99380.75;;;8.24;100.00
64340;BME280;63709;53.258;-8.814;2023-01-15T17:20:23;99439.25;;;8.65;100.00
64340;BME280;63709;53.258;-8.814;2023-01-15T17:23:11;99447.34;;;8.54;100.00
64340;BME280;63709;53.258;-8.814;2023-01-15T17:25:38;99431.09;;;8.47;100.00
64340;BME280;63709;53.258;-8.814;2023-01-15T17:28:04;99452.97;;;8.60;100.00
64340;BME280;63709;53.258;-8.814;2023-01-15T17:30:38;99437.97;;;8.50;100.00
64340;BME280;63709;53.258;-8.814;2023-01-15T17:33:05;99442.16;;;8.62;100.00
64340;BME280;63709;53.258;-8.814;2023-01-15T17:35:36;99407.16;;;8.47;100.00
64340;BME280;63709;53.258;-8.814;2023-01-15T17:38:03;99422.41;;;8.55;100.00
64340;BME280;63709;53.258;-8.814;2023-01-15T17:40:34;99427.13;;;8.41;100.00
64340;BME280;63709;53.258;-8.814;2023-01-15T17:43:04;99427.09;;;8.32;100.00
64340;BME280;63709;53.258;-8.814;2023-01-15T17:45:33;99425.38;;;8.21;100.00
64340;BME280;63709;53.258;-8.814;2023-01-15T17:51:20;99426.22;;;8.21;100.00
64340;BME280;63709;53.258;-8.814;2023-01-15T17:53:46;99406.28;;;8.06;100.00
64340;BME280;63709;53.258;-8.814;2023-01-15T17:59:45;99422.69;;;7.81;100.00
64340;BME280;63709;53.258;-8.814;2023-01-15T18:02:34;99414.13;;;7.77;100.00
64340;BME280;63709;53.258;-8.814;2023-01-15T18:05:18;99404.75;;;7.73;100.00
64340;BME280;63709;53.258;-8.814;2023-01-15T18:07:51;99414.13;;;7.77;100.00
64340;BME280;63709;53.258;-8.814;2023-01-15T18:10:24;99398.13;;;7.67;100.00
64340;BME280;63709;53.258;-8.814;2023-01-15T18:13:02;99406.75;;;7.60;100.00
64340;BME280;63709;53.258;-8.814;2023-01-15T18:15:46;99419.94;;;7.71;100.00
64340;BME280;63709;53.258;-8.814;2023-01-15T18:18:12;99406.75;;;7.60;100.00
64340;BME280;63709;53.258;-8.814;2023-01-15T18:20:50;99409.81;;;7.55;100.00
64340;BME280;63709;53.258;-8.814;2023-01-15T18:23:20;99395.53;;;7.46;100.00
64340;BME280;63709;53.258;-8.814;2023-01-15T18:29:09;99411.84;;;7.42;100.00
64340;BME280;63709;53.258;-8.814;2023-01-15T18:31:36;99391.28;;;7.23;100.00
64340;BME280;63709;53.258;-8.814;2023-01-15T18:34:13;99406.66;;;7.19;100.00
64340;BME280;63709;53.258;-8.814;2023-01-15T18:39:42;99399.59;;;7.09;100.00
64340;BME280;63709;53.258;-8.814;2023-01-15T18:45:29;99395.88;;;7.00;100.00
64340;BME280;63709;53.258;-8.814;2023-01-15T18:48:28;99394.59;;;6.94;100.00
64340;BME280;63709;53.258;-8.814;2023-01-15T18:51:08;99407.59;;;6.97;100.00
64340;BME280;63709;53.258;-8.814;2023-01-15T18:53:38;99391.75;;;6.86;100.00
64340;BME280;63709;53.258;-8.814;2023-01-15T18:56:24;99404.03;;;6.87;100.00